createdAt,value
2023-01-26T00:00:34.182Z,-1.67
2023-01-26T00:03:02.481Z,-1.70
2023-01-26T00:05:31.004Z,-1.69
2023-01-26T00:07:59.373Z,-1.68
2023-01-26T00:10:27.903Z,-1.69
2023-01-26T00:12:57.883Z,-1.73
2023-01-26T00:15:27.846Z,-1.75
2023-01-26T00:17:56.250Z,-1.66
2023-01-26T00:20:24.911Z,-1.73
2023-01-26T00:22:55.242Z,-1.70
2023-01-26T00:25:23.393Z,-1.74
2023-01-26T00:27:51.787Z,-1.73
2023-01-26T00:30:21.660Z,-1.72
2023-01-26T00:32:48.833Z,-1.70
2023-01-26T00:35:18.937Z,-1.70
2023-01-26T00:37:48.809Z,-1.71
2023-01-26T00:40:17.344Z,-1.72
2023-01-26T00:42:45.768Z,-1.75
2023-01-26T00:45:14.219Z,-1.76
2023-01-26T00:47:42.647Z,-1.74
2023-01-26T00:50:12.449Z,-1.74
2023-01-26T00:52:42.464Z,-1.73
2023-01-26T00:55:12.384Z,-1.74
2023-01-26T00:57:40.936Z,-1.69
2023-01-26T01:00:13.771Z,-1.69
2023-01-26T01:02:44.755Z,-1.60
2023-01-26T01:05:14.856Z,-1.65
2023-01-26T01:07:44.984Z,-1.70
2023-01-26T01:10:15.703Z,-1.68
2023-01-26T01:12:46.127Z,-1.69
2023-01-26T01:15:16.405Z,-1.58
2023-01-26T01:17:46.495Z,-1.61
2023-01-26T01:20:15.724Z,-1.67
2023-01-26T01:22:43.506Z,-1.69
2023-01-26T01:25:12.180Z,-1.68
2023-01-26T01:27:40.246Z,-1.72
2023-01-26T01:30:10.488Z,-1.72
2023-01-26T01:32:42.029Z,-1.75
2023-01-26T01:35:12.166Z,-1.73
2023-01-26T01:37:42.210Z,-1.77
2023-01-26T01:40:14.108Z,-1.68
2023-01-26T01:42:51.035Z,-1.78
2023-01-26T01:45:26.931Z,-1.80
2023-01-26T01:48:05.125Z,-1.79
2023-01-26T01:50:40.291Z,-1.76
2023-01-26T01:53:24.590Z,-1.75
2023-01-26T01:56:03.299Z,-1.78
2023-01-26T01:58:38.920Z,-1.77
2023-01-26T02:01:06.826Z,-1.79
2023-01-26T02:03:38.863Z,-1.78
2023-01-26T02:06:29.474Z,-1.80
2023-01-26T02:08:59.533Z,-1.76
2023-01-26T02:11:45.024Z,-1.77
2023-01-26T02:14:16.472Z,-1.77
2023-01-26T02:16:44.647Z,-1.76
2023-01-26T02:20:16.256Z,-1.73
2023-01-26T02:22:58.698Z,-1.75
2023-01-26T02:25:54.954Z,-1.75
2023-01-26T02:28:28.116Z,-1.61
2023-01-26T02:30:59.461Z,-1.68
2023-01-26T02:33:33.408Z,-1.76
2023-01-26T02:36:03.524Z,-1.77
2023-01-26T02:38:55.705Z,-1.76
2023-01-26T02:41:45.532Z,-1.74
2023-01-26T02:44:15.367Z,-1.69
2023-01-26T02:46:43.827Z,-1.72
2023-01-26T02:49:30.758Z,-1.70
2023-01-26T02:52:00.632Z,-1.73
2023-01-26T02:54:48.980Z,-1.71
2023-01-26T02:57:19.123Z,-1.70
2023-01-26T02:59:48.921Z,-1.59
2023-01-26T03:02:21.118Z,-1.56
2023-01-26T03:04:49.700Z,-1.58
2023-01-26T03:07:19.586Z,-1.60
2023-01-26T03:09:49.323Z,-1.67
2023-01-26T03:12:19.402Z,-1.62
2023-01-26T03:15:09.276Z,-1.61
2023-01-26T03:17:39.397Z,-1.66
2023-01-26T03:20:29.274Z,-1.65
2023-01-26T03:23:17.750Z,-1.60
2023-01-26T03:26:06.247Z,-1.57
2023-01-26T03:28:36.266Z,-1.64
2023-01-26T03:31:07.656Z,-1.69
2023-01-26T03:33:37.672Z,-1.73
2023-01-26T03:36:08.268Z,-1.58
2023-01-26T03:38:35.984Z,-1.64
2023-01-26T03:41:23.035Z,-1.65
2023-01-26T03:44:11.460Z,-1.71
2023-01-26T03:46:59.903Z,-1.67
2023-01-26T03:49:48.437Z,-1.75
2023-01-26T03:52:36.828Z,-1.77
2023-01-26T03:55:26.201Z,-1.77
2023-01-26T03:57:56.134Z,-1.66
2023-01-26T04:00:25.939Z,-1.74
2023-01-26T04:03:14.278Z,-1.76
2023-01-26T04:06:16.090Z,-1.78
2023-01-26T04:08:49.566Z,-1.72
2023-01-26T04:11:17.501Z,-1.82
2023-01-26T04:14:05.922Z,-1.86
2023-01-26T04:16:54.340Z,-1.85
2023-01-26T04:19:42.777Z,-1.80
2023-01-26T04:22:14.689Z,-1.80
2023-01-26T04:24:44.373Z,-1.92
2023-01-26T04:27:14.222Z,-1.89
2023-01-26T04:29:44.067Z,-1.92
2023-01-26T04:32:13.856Z,-1.91
2023-01-26T04:34:43.564Z,-1.83
2023-01-26T04:37:13.533Z,-1.75
2023-01-26T04:39:43.173Z,-1.78
2023-01-26T04:42:15.557Z,-1.77
2023-01-26T04:44:43.881Z,-1.82
2023-01-26T04:47:13.657Z,-1.92
2023-01-26T04:49:43.521Z,-1.91
2023-01-26T04:52:14.286Z,-1.88
2023-01-26T04:54:43.787Z,-1.92
2023-01-26T04:57:13.553Z,-1.88
2023-01-26T04:59:43.422Z,-1.83
2023-01-26T05:02:13.292Z,-1.88
2023-01-26T05:04:43.034Z,-1.87
2023-01-26T05:07:12.754Z,-1.80
2023-01-26T05:09:42.668Z,-1.77
2023-01-26T05:12:33.937Z,-1.90
2023-01-26T05:15:02.233Z,-1.90
2023-01-26T05:17:30.892Z,-1.89
2023-01-26T05:19:58.995Z,-1.95
2023-01-26T05:22:27.908Z,-1.86
2023-01-26T05:24:55.983Z,-1.90
2023-01-26T05:27:24.363Z,-1.87
2023-01-26T05:29:55.240Z,-1.97
2023-01-26T05:32:24.164Z,-1.99
2023-01-26T05:34:53.042Z,-1.98
2023-01-26T05:37:21.419Z,-2.01
2023-01-26T05:39:49.426Z,-2.01
2023-01-26T05:42:18.113Z,-1.97
2023-01-26T05:44:46.364Z,-1.90
2023-01-26T05:47:15.325Z,-1.92
2023-01-26T05:49:43.414Z,-1.97
2023-01-26T05:52:20.057Z,-1.99
2023-01-26T05:54:49.204Z,-2.04
2023-01-26T05:57:18.760Z,-1.98
2023-01-26T05:59:46.909Z,-1.92
2023-01-26T06:02:16.891Z,-1.98
2023-01-26T06:04:46.760Z,-1.99
2023-01-26T06:07:16.907Z,-1.99
2023-01-26T06:09:46.522Z,-1.96
2023-01-26T06:12:21.008Z,-1.99
2023-01-26T06:14:50.922Z,-1.96
2023-01-26T06:17:19.040Z,-1.98
2023-01-26T06:19:48.654Z,-1.98
2023-01-26T06:22:18.598Z,-1.96
2023-01-26T06:24:48.309Z,-1.95
2023-01-26T06:27:19.298Z,-1.84
2023-01-26T06:29:48.611Z,-1.88
2023-01-26T06:32:18.590Z,-1.79
2023-01-26T06:34:48.283Z,-1.91
2023-01-26T06:37:18.047Z,-1.94
2023-01-26T06:39:47.777Z,-1.93
2023-01-26T06:42:17.778Z,-1.95
2023-01-26T06:44:47.604Z,-1.86
2023-01-26T06:47:17.436Z,-1.93
2023-01-26T06:49:47.244Z,-1.97
2023-01-26T06:52:32.091Z,-1.98
2023-01-26T06:55:03.778Z,-1.92
2023-01-26T06:57:32.811Z,-1.97
2023-01-26T07:00:01.264Z,-1.96
2023-01-26T07:02:29.705Z,-1.98
2023-01-26T07:04:58.093Z,-1.89
2023-01-26T07:07:26.500Z,-1.92
2023-01-26T07:09:55.361Z,-1.97
2023-01-26T07:12:23.611Z,-1.95
2023-01-26T07:14:52.193Z,-1.96
2023-01-26T07:17:20.178Z,-1.95
2023-01-26T07:19:48.548Z,-1.67
2023-01-26T07:22:16.964Z,-1.82
2023-01-26T07:24:45.349Z,-1.86
2023-01-26T07:27:13.767Z,-1.90
2023-01-26T07:29:42.199Z,-1.87
2023-01-26T07:32:10.613Z,-1.96
2023-01-26T07:34:39.123Z,-1.92
2023-01-26T07:37:07.473Z,-1.86
2023-01-26T07:39:35.859Z,-1.88
2023-01-26T07:42:07.966Z,-1.89
2023-01-26T07:44:35.703Z,-1.93
2023-01-26T07:47:04.152Z,-1.96
2023-01-26T07:49:32.586Z,-1.98
2023-01-26T07:52:02.340Z,-2.00
2023-01-26T07:54:33.219Z,-1.84
2023-01-26T07:57:03.532Z,-2.01
2023-01-26T07:59:33.880Z,-1.85
2023-01-26T08:02:04.000Z,-1.91
2023-01-26T08:04:34.043Z,-1.87
2023-01-26T08:07:04.579Z,-1.94
2023-01-26T08:09:36.067Z,-2.01
2023-01-26T08:12:09.971Z,-1.95
2023-01-26T08:14:46.740Z,-2.04
2023-01-26T08:17:18.856Z,-2.04
2023-01-26T08:19:48.925Z,-2.07
2023-01-26T08:22:18.940Z,-2.02
2023-01-26T08:24:48.971Z,-2.09
2023-01-26T08:27:19.068Z,-2.06
2023-01-26T08:29:49.202Z,-2.07
2023-01-26T08:32:19.244Z,-1.90
2023-01-26T08:34:50.189Z,-1.96
2023-01-26T08:37:20.226Z,-2.09
2023-01-26T08:39:50.219Z,-2.02
2023-01-26T08:42:22.553Z,-2.11
2023-01-26T08:44:52.828Z,-2.07
2023-01-26T08:47:22.890Z,-1.97
2023-01-26T08:49:52.915Z,-2.10
2023-01-26T08:52:23.030Z,-2.09
2023-01-26T08:54:53.037Z,-2.00
2023-01-26T08:57:23.127Z,-2.05
2023-01-26T08:59:53.108Z,-2.07
2023-01-26T09:02:23.214Z,-2.01
2023-01-26T09:04:53.277Z,-2.02
2023-01-26T09:07:23.276Z,-2.08
2023-01-26T09:09:53.303Z,-2.08
2023-01-26T09:12:23.567Z,-2.00
2023-01-26T09:14:53.562Z,-2.13
2023-01-26T09:17:23.637Z,-2.13
2023-01-26T09:19:53.646Z,-2.19
2023-01-26T09:22:22.036Z,-2.21
2023-01-26T09:24:50.461Z,-2.21
2023-01-26T09:27:19.019Z,-2.20
2023-01-26T09:29:47.413Z,-2.19
2023-01-26T09:32:16.001Z,-2.15
2023-01-26T09:34:45.856Z,-2.15
2023-01-26T09:37:16.017Z,-2.16
2023-01-26T09:39:44.150Z,-2.13
2023-01-26T09:43:23.331Z,-2.23
2023-01-26T09:46:55.443Z,-2.34
2023-01-26T09:50:15.832Z,-2.26
2023-01-26T09:53:01.882Z,-2.28
2023-01-26T09:55:31.766Z,-2.24
2023-01-26T09:58:14.256Z,-2.23
2023-01-26T10:00:59.098Z,-2.15
2023-01-26T10:04:24.919Z,-2.16
2023-01-26T10:06:58.045Z,-2.28
2023-01-26T10:09:35.001Z,-2.13
2023-01-26T10:12:20.398Z,-2.20
2023-01-26T10:15:08.388Z,-2.10
2023-01-26T10:17:47.495Z,-1.96
2023-01-26T10:20:47.041Z,-2.16
2023-01-26T10:23:48.036Z,-2.28
2023-01-26T10:26:23.918Z,-2.26
2023-01-26T10:28:54.163Z,-2.25
2023-01-26T10:31:29.465Z,-2.20
2023-01-26T10:34:08.583Z,-2.26
2023-01-26T10:36:42.634Z,-1.99
2023-01-26T10:39:18.263Z,-2.08
2023-01-26T10:42:19.620Z,-2.12
2023-01-26T10:44:51.526Z,-2.10
2023-01-26T10:47:22.206Z,-2.06
2023-01-26T10:49:50.981Z,-2.11
2023-01-26T10:52:27.887Z,-2.07
2023-01-26T10:55:20.633Z,-2.13
2023-01-26T10:57:51.340Z,-2.09
2023-01-26T11:00:33.887Z,-2.14
2023-01-26T11:03:19.816Z,-2.07
2023-01-26T11:06:14.644Z,-2.09
2023-01-26T11:08:44.818Z,-2.12
2023-01-26T11:11:30.099Z,-1.97
2023-01-26T11:14:20.068Z,-1.99
2023-01-26T11:17:22.647Z,-2.05
2023-01-26T11:20:38.338Z,-2.00
2023-01-26T11:23:53.563Z,-2.07
2023-01-26T11:26:31.651Z,-1.92
2023-01-26T11:29:38.776Z,-1.99
2023-01-26T11:32:52.062Z,-2.05
2023-01-26T11:36:13.795Z,-1.94
2023-01-26T11:39:22.225Z,-2.15
2023-01-26T11:42:26.200Z,-2.10
2023-01-26T11:45:59.311Z,-2.17
2023-01-26T11:49:27.805Z,-2.16
2023-01-26T11:52:18.443Z,-2.09
2023-01-26T11:55:31.216Z,-2.07
2023-01-26T11:58:58.738Z,-2.10
2023-01-26T12:01:48.303Z,-2.13
2023-01-26T12:04:22.793Z,-2.11
2023-01-26T12:07:16.055Z,-2.12
2023-01-26T12:09:52.921Z,-2.14
2023-01-26T12:12:46.537Z,-2.02
2023-01-26T12:15:31.707Z,-2.09
2023-01-26T12:19:10.016Z,-2.12
2023-01-26T12:21:47.007Z,-2.02
2023-01-26T12:25:17.491Z,-2.05
2023-01-26T12:27:52.467Z,-2.05
2023-01-26T12:30:43.696Z,-2.10
2023-01-26T12:33:12.205Z,-2.11
2023-01-26T12:36:50.383Z,-1.96
2023-01-26T12:39:52.946Z,-2.01
2023-01-26T12:42:50.860Z,-1.99
2023-01-26T12:45:38.221Z,-2.15
2023-01-26T12:48:22.114Z,-2.14
2023-01-26T12:51:21.735Z,-2.18
2023-01-26T12:54:33.485Z,-2.11
2023-01-26T12:57:21.818Z,-2.02
2023-01-26T12:59:52.975Z,-2.19
2023-01-26T13:02:36.025Z,-2.21
2023-01-26T13:05:07.920Z,-2.17
2023-01-26T13:07:40.761Z,-2.12
2023-01-26T13:10:17.956Z,-2.09
2023-01-26T13:13:21.031Z,-2.02
2023-01-26T13:16:18.269Z,-1.92
2023-01-26T13:19:01.232Z,-1.94
2023-01-26T13:21:40.302Z,-1.94
2023-01-26T13:24:19.580Z,-1.89
2023-01-26T13:26:55.137Z,-1.89
2023-01-26T13:29:25.065Z,-1.87
2023-01-26T13:32:21.588Z,-1.94
2023-01-26T13:35:04.653Z,-1.89
2023-01-26T13:38:02.963Z,-1.87
2023-01-26T13:40:44.723Z,-1.88
2023-01-26T13:43:42.443Z,-1.89
2023-01-26T13:46:34.691Z,-1.84
2023-01-26T13:49:05.829Z,-1.80
2023-01-26T13:51:37.019Z,-1.90
2023-01-26T13:54:14.439Z,-1.93
2023-01-26T13:57:06.042Z,-1.92
2023-01-26T14:00:00.711Z,-1.89
2023-01-26T14:02:35.939Z,-1.78
2023-01-26T14:05:06.765Z,-1.84
2023-01-26T14:07:44.506Z,-1.87
2023-01-26T14:10:22.545Z,-1.88
2023-01-26T14:12:57.387Z,-1.91
2023-01-26T14:15:33.550Z,-2.02
2023-01-26T14:18:05.419Z,-1.95
2023-01-26T14:20:39.813Z,-1.99
2023-01-26T14:23:19.243Z,-1.99
2023-01-26T14:26:33.245Z,-1.94
2023-01-26T14:29:24.018Z,-1.87
2023-01-26T14:31:59.212Z,-1.93
2023-01-26T14:34:31.655Z,-1.94
2023-01-26T14:37:18.544Z,-1.92
2023-01-26T14:39:48.224Z,-1.83
2023-01-26T14:42:22.163Z,-1.94
2023-01-26T14:44:52.297Z,-1.99
2023-01-26T14:47:35.394Z,-1.92
2023-01-26T14:50:32.391Z,-1.89
2023-01-26T14:53:04.677Z,-1.98
2023-01-26T14:55:36.973Z,-2.00
2023-01-26T14:58:25.367Z,-2.07
2023-01-26T15:01:01.043Z,-1.95
2023-01-26T15:03:38.858Z,-2.02
2023-01-26T15:06:15.300Z,-2.07
2023-01-26T15:09:19.730Z,-2.12
2023-01-26T15:12:17.511Z,-2.09
2023-01-26T15:14:57.127Z,-2.05
2023-01-26T15:17:43.567Z,-1.84
2023-01-26T15:20:19.200Z,-1.94
2023-01-26T15:22:53.590Z,-2.03
2023-01-26T15:25:27.878Z,-2.02
2023-01-26T15:28:01.655Z,-1.99
2023-01-26T15:30:37.795Z,-2.10
2023-01-26T15:33:47.029Z,-2.22
2023-01-26T15:36:50.945Z,-2.27
2023-01-26T15:39:21.347Z,-2.27
2023-01-26T15:42:22.388Z,-2.29
2023-01-26T15:44:52.473Z,-2.28
2023-01-26T15:47:23.224Z,-2.18
2023-01-26T15:49:53.625Z,-2.14
2023-01-26T15:52:30.557Z,-2.25
2023-01-26T15:55:00.684Z,-2.29
2023-01-26T15:57:31.724Z,-2.29
2023-01-26T16:00:02.366Z,-2.30
2023-01-26T16:02:32.765Z,-2.28
2023-01-26T16:05:02.871Z,-2.26
2023-01-26T16:07:32.581Z,-2.37
2023-01-26T16:10:02.532Z,-2.36
2023-01-26T16:12:32.682Z,-2.37
2023-01-26T16:15:04.052Z,-2.31
2023-01-26T16:17:33.409Z,-2.32
2023-01-26T16:20:03.859Z,-2.34
2023-01-26T16:22:34.488Z,-2.06
2023-01-26T16:25:01.831Z,-2.10
2023-01-26T16:27:30.246Z,-2.17
2023-01-26T16:29:58.771Z,-2.20
2023-01-26T16:32:29.909Z,-2.12
2023-01-26T16:34:58.938Z,-2.13
2023-01-26T16:37:27.048Z,-2.12
2023-01-26T16:39:55.428Z,-2.18
2023-01-26T16:42:26.704Z,-2.20
2023-01-26T16:44:55.389Z,-2.27
2023-01-26T16:47:23.847Z,-2.28
2023-01-26T16:49:52.321Z,-2.29
2023-01-26T16:52:20.700Z,-2.30
2023-01-26T16:54:50.194Z,-2.15
2023-01-26T16:57:18.445Z,-2.16
2023-01-26T16:59:48.228Z,-2.24
2023-01-26T17:02:34.514Z,-2.31
2023-01-26T17:05:05.144Z,-2.35
2023-01-26T17:07:35.405Z,-2.26
2023-01-26T17:10:06.427Z,-2.36
2023-01-26T17:12:36.664Z,-2.34
2023-01-26T17:15:11.859Z,-2.42
2023-01-26T17:17:42.759Z,-2.46
2023-01-26T17:20:19.169Z,-2.50
2023-01-26T17:22:50.412Z,-2.48
2023-01-26T17:25:20.530Z,-2.47
2023-01-26T17:27:50.630Z,-2.49
2023-01-26T17:30:20.885Z,-2.49
2023-01-26T17:32:49.197Z,-2.50
2023-01-26T17:35:17.922Z,-2.34
2023-01-26T17:37:46.153Z,-2.40
2023-01-26T17:40:15.923Z,-2.38
2023-01-26T17:42:43.898Z,-2.39
2023-01-26T17:45:14.156Z,-2.45
2023-01-26T17:47:43.618Z,-2.46
2023-01-26T17:50:13.754Z,-2.45
2023-01-26T17:52:43.349Z,-2.32
2023-01-26T17:55:13.571Z,-2.32
2023-01-26T17:57:43.767Z,-2.40
2023-01-26T18:00:14.514Z,-2.37
2023-01-26T18:02:44.450Z,-2.39
2023-01-26T18:05:14.418Z,-2.47
2023-01-26T18:07:44.606Z,-2.41
2023-01-26T18:10:14.333Z,-2.42
2023-01-26T18:12:44.112Z,-2.49
2023-01-26T18:15:14.147Z,-2.56
2023-01-26T18:17:44.212Z,-2.58
2023-01-26T18:20:15.200Z,-2.58
2023-01-26T18:22:45.314Z,-2.54
2023-01-26T18:25:17.739Z,-2.54
2023-01-26T18:27:47.970Z,-2.48
2023-01-26T18:30:19.047Z,-2.48
2023-01-26T18:32:49.148Z,-2.51
2023-01-26T18:35:19.258Z,-2.47
2023-01-26T18:37:49.190Z,-2.41
2023-01-26T18:40:19.205Z,-2.48
2023-01-26T18:42:50.688Z,-2.48
2023-01-26T18:45:20.948Z,-2.41
2023-01-26T18:47:51.191Z,-2.47
2023-01-26T18:50:21.190Z,-2.41
2023-01-26T18:52:52.157Z,-2.43
2023-01-26T18:55:21.945Z,-2.41
2023-01-26T18:57:55.222Z,-2.48
2023-01-26T19:00:25.485Z,-2.52
2023-01-26T19:02:55.589Z,-2.53
2023-01-26T19:05:25.560Z,-2.57
2023-01-26T19:07:55.336Z,-2.57
2023-01-26T19:10:25.177Z,-2.48
2023-01-26T19:12:55.071Z,-2.48
2023-01-26T19:15:25.159Z,-2.50
2023-01-26T19:17:54.899Z,-2.52
2023-01-26T19:20:24.806Z,-2.56
2023-01-26T19:22:57.479Z,-2.52
2023-01-26T19:25:27.529Z,-2.52
2023-01-26T19:27:57.870Z,-2.42
2023-01-26T19:30:28.141Z,-2.37
2023-01-26T19:33:16.460Z,-2.40
2023-01-26T19:35:46.306Z,-2.29
2023-01-26T19:38:16.953Z,-2.35
2023-01-26T19:40:51.226Z,-2.39
2023-01-26T19:43:21.559Z,-2.42
2023-01-26T19:45:57.090Z,-2.39
2023-01-26T19:48:28.951Z,-2.31
2023-01-26T19:51:10.687Z,-2.34
2023-01-26T19:53:46.248Z,-2.35
2023-01-26T19:56:23.364Z,-2.33
2023-01-26T19:59:00.798Z,-2.33
2023-01-26T20:01:33.464Z,-2.29
2023-01-26T20:04:14.803Z,-2.31
2023-01-26T20:06:49.004Z,-2.31
2023-01-26T20:09:19.133Z,-2.30
2023-01-26T20:11:49.516Z,-2.26
2023-01-26T20:14:20.707Z,-2.25
2023-01-26T20:16:50.789Z,-2.27
2023-01-26T20:19:20.879Z,-2.26
2023-01-26T20:21:50.975Z,-2.21
2023-01-26T20:24:21.661Z,-2.18
2023-01-26T20:26:51.909Z,-2.16
2023-01-26T20:29:22.799Z,-2.17
2023-01-26T20:31:53.051Z,-2.12
2023-01-26T20:34:21.996Z,-2.13
2023-01-26T20:36:54.660Z,-2.11
2023-01-26T20:39:25.226Z,-2.08
2023-01-26T20:41:55.723Z,-2.11
2023-01-26T20:44:24.947Z,-2.14
2023-01-26T20:46:54.974Z,-2.14
2023-01-26T20:49:24.744Z,-2.14
2023-01-26T20:51:54.698Z,-2.13
2023-01-26T20:54:24.592Z,-2.03
2023-01-26T20:56:54.432Z,-2.11
2023-01-26T20:59:24.401Z,-2.10
2023-01-26T21:01:54.670Z,-2.11
2023-01-26T21:04:24.309Z,-2.11
2023-01-26T21:06:55.452Z,-2.09
2023-01-26T21:09:22.764Z,-2.07
2023-01-26T21:11:51.270Z,-2.05
2023-01-26T21:14:19.650Z,-2.06
2023-01-26T21:16:48.075Z,-2.04
2023-01-26T21:19:16.448Z,-2.01
2023-01-26T21:21:45.220Z,-1.99
2023-01-26T21:24:13.563Z,-1.97
2023-01-26T21:26:41.714Z,-1.99
2023-01-26T21:29:16.585Z,-2.00
2023-01-26T21:31:49.052Z,-1.99
2023-01-26T21:34:19.237Z,-2.05
2023-01-26T21:36:49.727Z,-2.03
2023-01-26T21:39:21.793Z,-2.03
2023-01-26T21:41:59.364Z,-2.02
2023-01-26T21:44:32.464Z,-2.00
2023-01-26T21:47:04.136Z,-1.97
2023-01-26T21:49:33.031Z,-1.94
2023-01-26T21:52:21.423Z,-1.93
2023-01-26T21:54:48.677Z,-1.92
2023-01-26T21:57:35.927Z,-1.94
2023-01-26T22:00:06.200Z,-1.96
2023-01-26T22:02:36.165Z,-1.93
2023-01-26T22:05:06.743Z,-1.91
2023-01-26T22:07:37.226Z,-1.90
2023-01-26T22:10:08.291Z,-1.91
2023-01-26T22:12:38.028Z,-1.89
2023-01-26T22:15:09.366Z,-1.93
2023-01-26T22:17:38.475Z,-1.90
2023-01-26T22:20:10.250Z,-1.91
2023-01-26T22:22:39.279Z,-1.87
2023-01-26T22:25:09.905Z,-1.82
2023-01-26T22:27:41.009Z,-1.80
2023-01-26T22:30:10.200Z,-1.80
2023-01-26T22:32:39.397Z,-1.79
2023-01-26T22:35:09.980Z,-1.76
2023-01-26T22:37:39.834Z,-1.79
2023-01-26T22:40:11.201Z,-1.78
2023-01-26T22:42:40.240Z,-1.79
2023-01-26T22:45:10.805Z,-1.76
2023-01-26T22:47:41.246Z,-1.74
2023-01-26T22:50:11.986Z,-1.75
2023-01-26T22:52:41.492Z,-1.72
2023-01-26T22:55:11.486Z,-1.70
2023-01-26T22:57:41.052Z,-1.68
2023-01-26T23:00:12.149Z,-1.71
2023-01-26T23:02:41.268Z,-1.72
2023-01-26T23:05:10.916Z,-1.62
2023-01-26T23:07:40.841Z,-1.65
2023-01-26T23:10:11.104Z,-1.66
2023-01-26T23:12:40.821Z,-1.66
2023-01-26T23:15:11.245Z,-1.62
2023-01-26T23:17:40.955Z,-1.52
2023-01-26T23:20:12.052Z,-1.56
2023-01-26T23:22:41.462Z,-1.59
2023-01-26T23:25:31.266Z,-1.59
2023-01-26T23:28:03.717Z,-1.62
2023-01-26T23:30:32.941Z,-1.62
2023-01-26T23:33:02.687Z,-1.62
2023-01-26T23:35:32.282Z,-1.60
2023-01-26T23:38:02.130Z,-1.58
2023-01-26T23:40:31.909Z,-1.57
2023-01-26T23:43:15.887Z,-1.57
2023-01-26T23:45:50.417Z,-1.57
2023-01-26T23:48:20.518Z,-1.56
2023-01-26T23:50:57.525Z,-1.58
2023-01-26T23:53:29.100Z,-1.61
2023-01-26T23:56:17.200Z,-1.59
2023-01-26T23:58:47.343Z,-1.57
